sensor_id;sensor_type;location;lat;lon;timestamp;P1;durP1;ratioP1;P2;durP2;ratioP2
54247;SDS011;40161;39.768;2.722;2024-03-22T00:00:41;31.50;;;14.00;;
54247;SDS011;40161;39.768;2.722;2024-03-22T00:03:07;35.45;;;16.48;;
54247;SDS011;40161;39.768;2.722;2024-03-22T00:05:32;34.88;;;16.73;;
54247;SDS011;40161;39.768;2.722;2024-03-22T00:07:58;24.25;;;14.30;;
54247;SDS011;40161;39.768;2.722;2024-03-22T00:10:24;24.50;;;11.35;;
54247;SDS011;40161;39.768;2.722;2024-03-22T00:12:49;21.60;;;11.50;;
54247;SDS011;40161;39.768;2.722;2024-03-22T00:15:16;26.05;;;12.20;;
54247;SDS011;40161;39.768;2.722;2024-03-22T00:17:44;25.85;;;11.90;;
54247;SDS011;40161;39.768;2.722;2024-03-22T00:20:10;28.27;;;12.05;;
54247;SDS011;40161;39.768;2.722;2024-03-22T00:22:37;25.35;;;12.43;;
54247;SDS011;40161;39.768;2.722;2024-03-22T00:25:03;37.45;;;15.70;;
54247;SDS011;40161;39.768;2.722;2024-03-22T00:27:30;27.10;;;12.82;;
54247;SDS011;40161;39.768;2.722;2024-03-22T00:29:56;23.90;;;10.93;;
54247;SDS011;40161;39.768;2.722;2024-03-22T00:32:22;26.92;;;11.82;;
54247;SDS011;40161;39.768;2.722;2024-03-22T00:34:48;39.78;;;18.05;;
54247;SDS011;40161;39.768;2.722;2024-03-22T00:37:13;49.10;;;18.35;;
54247;SDS011;40161;39.768;2.722;2024-03-22T00:39:39;38.22;;;15.98;;
54247;SDS011;40161;39.768;2.722;2024-03-22T00:42:04;24.77;;;10.75;;
54247;SDS011;40161;39.768;2.722;2024-03-22T00:44:30;30.67;;;12.40;;
54247;SDS011;40161;39.768;2.722;2024-03-22T00:46:55;22.13;;;9.15;;
54247;SDS011;40161;39.768;2.722;2024-03-22T00:49:21;25.42;;;9.90;;
54247;SDS011;40161;39.768;2.722;2024-03-22T00:51:47;27.85;;;10.88;;
54247;SDS011;40161;39.768;2.722;2024-03-22T00:54:13;24.60;;;11.38;;
54247;SDS011;40161;39.768;2.722;2024-03-22T00:56:39;33.83;;;14.18;;
54247;SDS011;40161;39.768;2.722;2024-03-22T00:59:04;40.67;;;14.07;;
54247;SDS011;40161;39.768;2.722;2024-03-22T01:01:30;30.42;;;12.90;;
54247;SDS011;40161;39.768;2.722;2024-03-22T01:03:56;27.30;;;10.50;;
54247;SDS011;40161;39.768;2.722;2024-03-22T01:06:21;23.65;;;11.02;;
54247;SDS011;40161;39.768;2.722;2024-03-22T01:08:50;21.75;;;9.43;;
54247;SDS011;40161;39.768;2.722;2024-03-22T01:11:17;27.60;;;10.07;;
54247;SDS011;40161;39.768;2.722;2024-03-22T01:13:43;22.20;;;9.35;;
54247;SDS011;40161;39.768;2.722;2024-03-22T01:16:08;21.83;;;9.63;;
54247;SDS011;40161;39.768;2.722;2024-03-22T01:18:35;24.02;;;9.82;;
54247;SDS011;40161;39.768;2.722;2024-03-22T01:21:01;15.45;;;7.93;;
54247;SDS011;40161;39.768;2.722;2024-03-22T01:23:27;21.02;;;8.10;;
54247;SDS011;40161;39.768;2.722;2024-03-22T01:25:53;18.98;;;6.90;;
54247;SDS011;40161;39.768;2.722;2024-03-22T01:28:18;18.83;;;7.57;;
54247;SDS011;40161;39.768;2.722;2024-03-22T01:30:44;19.92;;;7.40;;
54247;SDS011;40161;39.768;2.722;2024-03-22T01:33:10;16.23;;;7.45;;
54247;SDS011;40161;39.768;2.722;2024-03-22T01:35:35;20.45;;;9.02;;
54247;SDS011;40161;39.768;2.722;2024-03-22T01:38:01;19.73;;;8.60;;
54247;SDS011;40161;39.768;2.722;2024-03-22T01:40:26;23.63;;;9.02;;
54247;SDS011;40161;39.768;2.722;2024-03-22T01:42:53;22.70;;;8.23;;
54247;SDS011;40161;39.768;2.722;2024-03-22T01:45:20;14.95;;;7.15;;
54247;SDS011;40161;39.768;2.722;2024-03-22T01:47:50;18.05;;;7.05;;
54247;SDS011;40161;39.768;2.722;2024-03-22T01:50:18;17.08;;;7.13;;
54247;SDS011;40161;39.768;2.722;2024-03-22T01:52:44;15.73;;;7.20;;
54247;SDS011;40161;39.768;2.722;2024-03-22T01:55:09;17.35;;;7.70;;
54247;SDS011;40161;39.768;2.722;2024-03-22T01:57:35;19.17;;;8.88;;
54247;SDS011;40161;39.768;2.722;2024-03-22T02:00:02;22.55;;;9.40;;
54247;SDS011;40161;39.768;2.722;2024-03-22T02:02:28;19.20;;;7.47;;
54247;SDS011;40161;39.768;2.722;2024-03-22T02:04:53;23.50;;;10.90;;
54247;SDS011;40161;39.768;2.722;2024-03-22T02:07:19;21.52;;;8.77;;
54247;SDS011;40161;39.768;2.722;2024-03-22T02:09:45;22.52;;;8.50;;
54247;SDS011;40161;39.768;2.722;2024-03-22T02:12:10;18.98;;;8.45;;
54247;SDS011;40161;39.768;2.722;2024-03-22T02:14:36;19.25;;;7.93;;
54247;SDS011;40161;39.768;2.722;2024-03-22T02:17:02;19.50;;;9.02;;
54247;SDS011;40161;39.768;2.722;2024-03-22T02:19:28;21.40;;;8.68;;
54247;SDS011;40161;39.768;2.722;2024-03-22T02:21:53;19.50;;;8.43;;
54247;SDS011;40161;39.768;2.722;2024-03-22T02:24:19;18.17;;;8.25;;
54247;SDS011;40161;39.768;2.722;2024-03-22T02:26:44;16.65;;;7.30;;
54247;SDS011;40161;39.768;2.722;2024-03-22T02:29:10;17.02;;;6.65;;
54247;SDS011;40161;39.768;2.722;2024-03-22T02:31:36;16.35;;;7.32;;
54247;SDS011;40161;39.768;2.722;2024-03-22T02:34:01;14.23;;;7.10;;
54247;SDS011;40161;39.768;2.722;2024-03-22T02:36:27;19.88;;;7.43;;
54247;SDS011;40161;39.768;2.722;2024-03-22T02:38:53;17.90;;;6.68;;
54247;SDS011;40161;39.768;2.722;2024-03-22T02:41:19;17.88;;;7.65;;
54247;SDS011;40161;39.768;2.722;2024-03-22T02:43:45;18.48;;;7.22;;
54247;SDS011;40161;39.768;2.722;2024-03-22T02:46:10;19.48;;;7.30;;
54247;SDS011;40161;39.768;2.722;2024-03-22T02:48:36;18.67;;;6.63;;
54247;SDS011;40161;39.768;2.722;2024-03-22T02:51:01;14.73;;;6.25;;
54247;SDS011;40161;39.768;2.722;2024-03-22T02:53:27;16.92;;;6.53;;
54247;SDS011;40161;39.768;2.722;2024-03-22T02:55:53;13.00;;;5.68;;
54247;SDS011;40161;39.768;2.722;2024-03-22T02:58:20;16.90;;;7.13;;
54247;SDS011;40161;39.768;2.722;2024-03-22T03:00:47;14.45;;;6.13;;
54247;SDS011;40161;39.768;2.722;2024-03-22T03:03:13;13.27;;;5.38;;
54247;SDS011;40161;39.768;2.722;2024-03-22T03:05:39;13.43;;;6.05;;
54247;SDS011;40161;39.768;2.722;2024-03-22T03:08:06;13.18;;;6.13;;
54247;SDS011;40161;39.768;2.722;2024-03-22T03:10:32;13.75;;;6.50;;
54247;SDS011;40161;39.768;2.722;2024-03-22T03:12:57;14.20;;;5.88;;
54247;SDS011;40161;39.768;2.722;2024-03-22T03:15:23;16.38;;;6.50;;
54247;SDS011;40161;39.768;2.722;2024-03-22T03:17:48;16.02;;;6.47;;
54247;SDS011;40161;39.768;2.722;2024-03-22T03:20:15;12.95;;;5.90;;
54247;SDS011;40161;39.768;2.722;2024-03-22T03:22:40;24.13;;;8.65;;
54247;SDS011;40161;39.768;2.722;2024-03-22T03:25:06;13.85;;;5.60;;
54247;SDS011;40161;39.768;2.722;2024-03-22T03:27:32;13.65;;;6.45;;
54247;SDS011;40161;39.768;2.722;2024-03-22T03:29:58;14.90;;;6.50;;
54247;SDS011;40161;39.768;2.722;2024-03-22T03:32:24;16.70;;;5.63;;
54247;SDS011;40161;39.768;2.722;2024-03-22T03:34:50;12.70;;;5.97;;
54247;SDS011;40161;39.768;2.722;2024-03-22T03:37:16;12.60;;;6.05;;
54247;SDS011;40161;39.768;2.722;2024-03-22T03:39:42;16.27;;;6.20;;
54247;SDS011;40161;39.768;2.722;2024-03-22T03:42:07;14.77;;;5.70;;
54247;SDS011;40161;39.768;2.722;2024-03-22T03:44:33;15.70;;;6.65;;
54247;SDS011;40161;39.768;2.722;2024-03-22T03:47:00;17.35;;;6.50;;
54247;SDS011;40161;39.768;2.722;2024-03-22T03:49:26;15.75;;;7.55;;
54247;SDS011;40161;39.768;2.722;2024-03-22T03:51:52;13.57;;;6.38;;
54247;SDS011;40161;39.768;2.722;2024-03-22T03:54:17;16.00;;;6.20;;
54247;SDS011;40161;39.768;2.722;2024-03-22T03:56:43;12.73;;;5.88;;
54247;SDS011;40161;39.768;2.722;2024-03-22T03:59:08;13.55;;;6.07;;
54247;SDS011;40161;39.768;2.722;2024-03-22T04:01:34;14.60;;;5.28;;
54247;SDS011;40161;39.768;2.722;2024-03-22T04:04:00;15.95;;;5.68;;
54247;SDS011;40161;39.768;2.722;2024-03-22T04:06:26;14.73;;;5.53;;
54247;SDS011;40161;39.768;2.722;2024-03-22T04:08:51;19.27;;;7.65;;
54247;SDS011;40161;39.768;2.722;2024-03-22T04:11:17;11.00;;;5.80;;
54247;SDS011;40161;39.768;2.722;2024-03-22T04:13:42;13.88;;;5.57;;
54247;SDS011;40161;39.768;2.722;2024-03-22T04:16:08;14.43;;;5.40;;
54247;SDS011;40161;39.768;2.722;2024-03-22T04:18:33;13.13;;;5.82;;
54247;SDS011;40161;39.768;2.722;2024-03-22T04:20:59;13.27;;;4.80;;
54247;SDS011;40161;39.768;2.722;2024-03-22T04:23:25;10.43;;;4.70;;
54247;SDS011;40161;39.768;2.722;2024-03-22T04:25:52;11.57;;;4.75;;
54247;SDS011;40161;39.768;2.722;2024-03-22T04:28:21;15.30;;;5.88;;
54247;SDS011;40161;39.768;2.722;2024-03-22T04:31:03;12.50;;;5.60;;
54247;SDS011;40161;39.768;2.722;2024-03-22T04:33:30;12.75;;;4.82;;
54247;SDS011;40161;39.768;2.722;2024-03-22T04:35:57;15.15;;;5.45;;
54247;SDS011;40161;39.768;2.722;2024-03-22T04:38:24;14.70;;;4.78;;
54247;SDS011;40161;39.768;2.722;2024-03-22T04:40:53;12.48;;;5.00;;
54247;SDS011;40161;39.768;2.722;2024-03-22T04:43:19;11.13;;;5.05;;
54247;SDS011;40161;39.768;2.722;2024-03-22T04:45:46;12.73;;;6.03;;
54247;SDS011;40161;39.768;2.722;2024-03-22T04:48:13;12.82;;;5.70;;
54247;SDS011;40161;39.768;2.722;2024-03-22T04:50:40;14.50;;;6.20;;
54247;SDS011;40161;39.768;2.722;2024-03-22T04:53:06;14.60;;;6.10;;
54247;SDS011;40161;39.768;2.722;2024-03-22T04:55:32;12.90;;;4.65;;
54247;SDS011;40161;39.768;2.722;2024-03-22T04:58:00;12.68;;;5.38;;
54247;SDS011;40161;39.768;2.722;2024-03-22T05:00:27;15.63;;;5.35;;
54247;SDS011;40161;39.768;2.722;2024-03-22T05:02:53;14.73;;;5.70;;
54247;SDS011;40161;39.768;2.722;2024-03-22T05:05:20;12.23;;;4.70;;
54247;SDS011;40161;39.768;2.722;2024-03-22T05:07:45;13.75;;;4.90;;
54247;SDS011;40161;39.768;2.722;2024-03-22T05:10:11;20.85;;;5.85;;
54247;SDS011;40161;39.768;2.722;2024-03-22T05:12:37;15.23;;;5.28;;
54247;SDS011;40161;39.768;2.722;2024-03-22T05:15:03;12.77;;;4.55;;
54247;SDS011;40161;39.768;2.722;2024-03-22T05:17:30;20.42;;;5.10;;
54247;SDS011;40161;39.768;2.722;2024-03-22T05:19:57;18.75;;;5.28;;
54247;SDS011;40161;39.768;2.722;2024-03-22T05:22:23;10.63;;;4.93;;
54247;SDS011;40161;39.768;2.722;2024-03-22T05:24:49;15.23;;;5.40;;
54247;SDS011;40161;39.768;2.722;2024-03-22T05:27:14;13.48;;;5.47;;
54247;SDS011;40161;39.768;2.722;2024-03-22T05:29:40;14.10;;;4.63;;
54247;SDS011;40161;39.768;2.722;2024-03-22T05:32:06;15.75;;;4.65;;
54247;SDS011;40161;39.768;2.722;2024-03-22T05:34:31;14.27;;;4.35;;
54247;SDS011;40161;39.768;2.722;2024-03-22T05:36:57;10.88;;;5.40;;
54247;SDS011;40161;39.768;2.722;2024-03-22T05:39:24;10.73;;;4.45;;
54247;SDS011;40161;39.768;2.722;2024-03-22T05:41:49;10.50;;;4.30;;
54247;SDS011;40161;39.768;2.722;2024-03-22T05:44:15;13.02;;;4.95;;
54247;SDS011;40161;39.768;2.722;2024-03-22T05:46:40;11.43;;;4.95;;
54247;SDS011;40161;39.768;2.722;2024-03-22T05:49:06;13.02;;;4.90;;
54247;SDS011;40161;39.768;2.722;2024-03-22T05:51:32;10.23;;;5.07;;
54247;SDS011;40161;39.768;2.722;2024-03-22T05:53:58;12.23;;;4.63;;
54247;SDS011;40161;39.768;2.722;2024-03-22T05:56:24;11.45;;;4.88;;
54247;SDS011;40161;39.768;2.722;2024-03-22T05:58:49;13.23;;;5.03;;
54247;SDS011;40161;39.768;2.722;2024-03-22T06:01:15;12.20;;;5.57;;
54247;SDS011;40161;39.768;2.722;2024-03-22T06:03:40;13.98;;;5.75;;
54247;SDS011;40161;39.768;2.722;2024-03-22T06:06:06;13.15;;;5.15;;
54247;SDS011;40161;39.768;2.722;2024-03-22T06:08:32;14.20;;;5.72;;
54247;SDS011;40161;39.768;2.722;2024-03-22T06:10:59;26.90;;;6.03;;
54247;SDS011;40161;39.768;2.722;2024-03-22T06:13:25;10.43;;;4.60;;
54247;SDS011;40161;39.768;2.722;2024-03-22T06:19:17;18.20;;;5.40;;
54247;SDS011;40161;39.768;2.722;2024-03-22T06:21:43;25.60;;;5.78;;
54247;SDS011;40161;39.768;2.722;2024-03-22T06:24:08;23.60;;;5.53;;
54247;SDS011;40161;39.768;2.722;2024-03-22T06:26:34;12.35;;;4.60;;
54247;SDS011;40161;39.768;2.722;2024-03-22T06:29:00;12.88;;;5.03;;
54247;SDS011;40161;39.768;2.722;2024-03-22T06:31:25;12.38;;;5.40;;
54247;SDS011;40161;39.768;2.722;2024-03-22T06:33:51;30.45;;;17.15;;
54247;SDS011;40161;39.768;2.722;2024-03-22T06:36:17;25.55;;;10.65;;
54247;SDS011;40161;39.768;2.722;2024-03-22T06:38:43;23.48;;;10.25;;
54247;SDS011;40161;39.768;2.722;2024-03-22T06:41:09;20.55;;;8.38;;
54247;SDS011;40161;39.768;2.722;2024-03-22T06:43:34;17.13;;;8.68;;
54247;SDS011;40161;39.768;2.722;2024-03-22T06:46:00;44.78;;;25.42;;
54247;SDS011;40161;39.768;2.722;2024-03-22T06:48:25;46.92;;;28.42;;
54247;SDS011;40161;39.768;2.722;2024-03-22T06:50:51;41.58;;;26.65;;
54247;SDS011;40161;39.768;2.722;2024-03-22T06:53:17;47.45;;;22.33;;
54247;SDS011;40161;39.768;2.722;2024-03-22T06:55:42;37.60;;;24.48;;
54247;SDS011;40161;39.768;2.722;2024-03-22T06:58:08;39.67;;;17.92;;
54247;SDS011;40161;39.768;2.722;2024-03-22T07:00:33;31.88;;;16.38;;
54247;SDS011;40161;39.768;2.722;2024-03-22T07:03:00;48.15;;;15.70;;
54247;SDS011;40161;39.768;2.722;2024-03-22T07:05:27;29.80;;;14.05;;
54247;SDS011;40161;39.768;2.722;2024-03-22T07:07:53;68.15;;;16.40;;
54247;SDS011;40161;39.768;2.722;2024-03-22T07:10:22;27.88;;;12.52;;
54247;SDS011;40161;39.768;2.722;2024-03-22T07:12:53;19.75;;;11.05;;
54247;SDS011;40161;39.768;2.722;2024-03-22T07:15:24;21.67;;;11.88;;
54247;SDS011;40161;39.768;2.722;2024-03-22T07:17:50;27.92;;;11.98;;
54247;SDS011;40161;39.768;2.722;2024-03-22T07:20:16;25.02;;;10.52;;
54247;SDS011;40161;39.768;2.722;2024-03-22T07:22:42;24.52;;;10.05;;
54247;SDS011;40161;39.768;2.722;2024-03-22T07:25:08;19.05;;;10.70;;
54247;SDS011;40161;39.768;2.722;2024-03-22T07:27:36;15.23;;;9.13;;
54247;SDS011;40161;39.768;2.722;2024-03-22T07:30:02;16.42;;;9.05;;
54247;SDS011;40161;39.768;2.722;2024-03-22T07:32:29;22.73;;;10.32;;
54247;SDS011;40161;39.768;2.722;2024-03-22T07:34:55;17.75;;;9.65;;
54247;SDS011;40161;39.768;2.722;2024-03-22T07:37:21;16.67;;;9.50;;
54247;SDS011;40161;39.768;2.722;2024-03-22T07:39:46;18.60;;;10.02;;
54247;SDS011;40161;39.768;2.722;2024-03-22T07:42:12;20.67;;;10.07;;
54247;SDS011;40161;39.768;2.722;2024-03-22T07:44:38;17.42;;;8.98;;
54247;SDS011;40161;39.768;2.722;2024-03-22T07:47:04;20.08;;;8.65;;
54247;SDS011;40161;39.768;2.722;2024-03-22T07:49:29;18.13;;;7.10;;
54247;SDS011;40161;39.768;2.722;2024-03-22T07:51:56;29.92;;;7.97;;
54247;SDS011;40161;39.768;2.722;2024-03-22T07:54:22;20.80;;;6.85;;
54247;SDS011;40161;39.768;2.722;2024-03-22T07:56:47;18.65;;;6.82;;
54247;SDS011;40161;39.768;2.722;2024-03-22T07:59:13;11.55;;;5.72;;
54247;SDS011;40161;39.768;2.722;2024-03-22T08:01:40;21.75;;;6.97;;
54247;SDS011;40161;39.768;2.722;2024-03-22T08:04:05;15.27;;;5.43;;
54247;SDS011;40161;39.768;2.722;2024-03-22T08:06:31;13.88;;;4.78;;
54247;SDS011;40161;39.768;2.722;2024-03-22T08:08:56;14.57;;;5.35;;
54247;SDS011;40161;39.768;2.722;2024-03-22T08:11:22;15.85;;;4.88;;
54247;SDS011;40161;39.768;2.722;2024-03-22T08:13:48;16.27;;;5.07;;
54247;SDS011;40161;39.768;2.722;2024-03-22T08:16:13;13.13;;;4.68;;
54247;SDS011;40161;39.768;2.722;2024-03-22T08:18:39;32.90;;;13.77;;
54247;SDS011;40161;39.768;2.722;2024-03-22T08:21:04;31.65;;;14.82;;
54247;SDS011;40161;39.768;2.722;2024-03-22T08:23:30;24.23;;;10.82;;
54247;SDS011;40161;39.768;2.722;2024-03-22T08:25:56;19.20;;;8.95;;
54247;SDS011;40161;39.768;2.722;2024-03-22T08:28:22;25.15;;;9.35;;
54247;SDS011;40161;39.768;2.722;2024-03-22T08:30:48;15.68;;;6.68;;
54247;SDS011;40161;39.768;2.722;2024-03-22T08:33:14;18.35;;;6.78;;
54247;SDS011;40161;39.768;2.722;2024-03-22T08:35:40;17.38;;;5.85;;
54247;SDS011;40161;39.768;2.722;2024-03-22T08:38:05;13.38;;;5.60;;
54247;SDS011;40161;39.768;2.722;2024-03-22T08:40:39;27.42;;;7.00;;
54247;SDS011;40161;39.768;2.722;2024-03-22T08:43:05;18.85;;;5.30;;
54247;SDS011;40161;39.768;2.722;2024-03-22T08:45:34;14.75;;;4.60;;
54247;SDS011;40161;39.768;2.722;2024-03-22T08:48:00;14.43;;;4.20;;
54247;SDS011;40161;39.768;2.722;2024-03-22T08:50:26;11.50;;;3.65;;
54247;SDS011;40161;39.768;2.722;2024-03-22T08:52:52;10.50;;;3.85;;
54247;SDS011;40161;39.768;2.722;2024-03-22T08:55:17;9.85;;;3.80;;
54247;SDS011;40161;39.768;2.722;2024-03-22T08:57:43;11.65;;;4.10;;
54247;SDS011;40161;39.768;2.722;2024-03-22T09:00:09;13.80;;;4.63;;
54247;SDS011;40161;39.768;2.722;2024-03-22T09:02:35;10.32;;;3.58;;
54247;SDS011;40161;39.768;2.722;2024-03-22T09:05:03;9.95;;;3.55;;
54247;SDS011;40161;39.768;2.722;2024-03-22T09:07:29;12.13;;;3.88;;
54247;SDS011;40161;39.768;2.722;2024-03-22T09:09:54;17.63;;;5.47;;
54247;SDS011;40161;39.768;2.722;2024-03-22T09:12:20;16.95;;;8.23;;
54247;SDS011;40161;39.768;2.722;2024-03-22T09:14:46;23.20;;;9.13;;
54247;SDS011;40161;39.768;2.722;2024-03-22T09:17:11;15.48;;;6.20;;
54247;SDS011;40161;39.768;2.722;2024-03-22T09:19:37;13.45;;;5.00;;
54247;SDS011;40161;39.768;2.722;2024-03-22T09:22:03;18.27;;;7.78;;
54247;SDS011;40161;39.768;2.722;2024-03-22T09:24:28;43.58;;;23.20;;
54247;SDS011;40161;39.768;2.722;2024-03-22T09:26:54;104.45;;;52.92;;
54247;SDS011;40161;39.768;2.722;2024-03-22T09:29:20;49.95;;;23.52;;
54247;SDS011;40161;39.768;2.722;2024-03-22T09:31:45;43.25;;;22.20;;
54247;SDS011;40161;39.768;2.722;2024-03-22T09:34:12;32.10;;;16.35;;
54247;SDS011;40161;39.768;2.722;2024-03-22T09:36:38;36.15;;;17.08;;
54247;SDS011;40161;39.768;2.722;2024-03-22T09:39:04;34.92;;;18.45;;
54247;SDS011;40161;39.768;2.722;2024-03-22T09:41:31;21.65;;;11.02;;
54247;SDS011;40161;39.768;2.722;2024-03-22T09:43:58;18.17;;;8.75;;
54247;SDS011;40161;39.768;2.722;2024-03-22T09:46:27;19.77;;;10.63;;
54247;SDS011;40161;39.768;2.722;2024-03-22T09:48:54;20.02;;;8.38;;
54247;SDS011;40161;39.768;2.722;2024-03-22T09:51:19;14.35;;;7.00;;
54247;SDS011;40161;39.768;2.722;2024-03-22T09:53:49;17.08;;;8.10;;
54247;SDS011;40161;39.768;2.722;2024-03-22T09:56:17;17.13;;;6.25;;
54247;SDS011;40161;39.768;2.722;2024-03-22T09:58:46;11.48;;;5.82;;
54247;SDS011;40161;39.768;2.722;2024-03-22T10:01:12;13.95;;;5.65;;
54247;SDS011;40161;39.768;2.722;2024-03-22T10:03:39;12.77;;;5.10;;
54247;SDS011;40161;39.768;2.722;2024-03-22T10:06:05;14.90;;;4.78;;
54247;SDS011;40161;39.768;2.722;2024-03-22T10:08:31;9.35;;;4.70;;
54247;SDS011;40161;39.768;2.722;2024-03-22T10:10:57;10.13;;;4.57;;
54247;SDS011;40161;39.768;2.722;2024-03-22T10:13:23;12.65;;;4.55;;
54247;SDS011;40161;39.768;2.722;2024-03-22T10:15:48;10.40;;;5.68;;
54247;SDS011;40161;39.768;2.722;2024-03-22T10:18:14;12.13;;;4.65;;
54247;SDS011;40161;39.768;2.722;2024-03-22T10:20:40;8.82;;;3.08;;
54247;SDS011;40161;39.768;2.722;2024-03-22T10:23:07;8.70;;;3.83;;
54247;SDS011;40161;39.768;2.722;2024-03-22T10:25:33;10.00;;;3.50;;
54247;SDS011;40161;39.768;2.722;2024-03-22T10:28:00;9.57;;;3.63;;
54247;SDS011;40161;39.768;2.722;2024-03-22T10:30:26;8.95;;;3.33;;
54247;SDS011;40161;39.768;2.722;2024-03-22T10:32:53;12.60;;;4.22;;
54247;SDS011;40161;39.768;2.722;2024-03-22T10:35:19;20.70;;;7.70;;
54247;SDS011;40161;39.768;2.722;2024-03-22T10:37:44;34.35;;;17.77;;
54247;SDS011;40161;39.768;2.722;2024-03-22T10:40:10;30.98;;;16.02;;
54247;SDS011;40161;39.768;2.722;2024-03-22T10:45:06;7.60;;;3.85;;
54247;SDS011;40161;39.768;2.722;2024-03-22T10:47:35;9.75;;;4.65;;
54247;SDS011;40161;39.768;2.722;2024-03-22T10:50:04;8.23;;;3.10;;
54247;SDS011;40161;39.768;2.722;2024-03-22T10:55:15;8.70;;;3.22;;
54247;SDS011;40161;39.768;2.722;2024-03-22T10:57:48;6.63;;;3.80;;
54247;SDS011;40161;39.768;2.722;2024-03-22T11:00:13;7.97;;;3.70;;
54247;SDS011;40161;39.768;2.722;2024-03-22T11:02:43;9.52;;;4.03;;
54247;SDS011;40161;39.768;2.722;2024-03-22T11:05:17;10.90;;;4.03;;
54247;SDS011;40161;39.768;2.722;2024-03-22T11:07:44;9.52;;;4.85;;
54247;SDS011;40161;39.768;2.722;2024-03-22T11:10:12;10.30;;;5.80;;
54247;SDS011;40161;39.768;2.722;2024-03-22T11:12:39;10.38;;;5.10;;
54247;SDS011;40161;39.768;2.722;2024-03-22T11:15:10;9.90;;;4.15;;
54247;SDS011;40161;39.768;2.722;2024-03-22T11:17:37;10.18;;;3.13;;
54247;SDS011;40161;39.768;2.722;2024-03-22T11:20:03;12.60;;;3.75;;
54247;SDS011;40161;39.768;2.722;2024-03-22T11:22:29;11.85;;;3.83;;
54247;SDS011;40161;39.768;2.722;2024-03-22T11:24:55;8.38;;;3.28;;
54247;SDS011;40161;39.768;2.722;2024-03-22T11:27:20;10.88;;;3.95;;
54247;SDS011;40161;39.768;2.722;2024-03-22T11:29:46;11.68;;;4.68;;
54247;SDS011;40161;39.768;2.722;2024-03-22T11:32:12;12.52;;;5.43;;
54247;SDS011;40161;39.768;2.722;2024-03-22T11:34:38;13.00;;;7.60;;
54247;SDS011;40161;39.768;2.722;2024-03-22T11:37:06;15.35;;;7.65;;
54247;SDS011;40161;39.768;2.722;2024-03-22T11:39:35;13.32;;;5.90;;
54247;SDS011;40161;39.768;2.722;2024-03-22T11:42:02;11.07;;;4.95;;
54247;SDS011;40161;39.768;2.722;2024-03-22T11:44:30;10.05;;;4.68;;
54247;SDS011;40161;39.768;2.722;2024-03-22T11:46:57;10.20;;;4.45;;
54247;SDS011;40161;39.768;2.722;2024-03-22T11:49:23;11.23;;;4.95;;
54247;SDS011;40161;39.768;2.722;2024-03-22T11:51:51;13.75;;;4.68;;
54247;SDS011;40161;39.768;2.722;2024-03-22T11:54:19;10.07;;;4.22;;
54247;SDS011;40161;39.768;2.722;2024-03-22T11:56:45;10.30;;;4.75;;
54247;SDS011;40161;39.768;2.722;2024-03-22T11:59:11;9.60;;;4.53;;
54247;SDS011;40161;39.768;2.722;2024-03-22T12:01:37;10.05;;;4.68;;
54247;SDS011;40161;39.768;2.722;2024-03-22T12:04:02;12.45;;;3.78;;
54247;SDS011;40161;39.768;2.722;2024-03-22T12:06:29;12.18;;;4.18;;
54247;SDS011;40161;39.768;2.722;2024-03-22T12:08:55;8.52;;;3.55;;
54247;SDS011;40161;39.768;2.722;2024-03-22T12:11:20;8.63;;;3.45;;
54247;SDS011;40161;39.768;2.722;2024-03-22T12:13:46;10.68;;;3.38;;
54247;SDS011;40161;39.768;2.722;2024-03-22T12:16:12;10.10;;;3.25;;
54247;SDS011;40161;39.768;2.722;2024-03-22T12:18:37;12.20;;;3.38;;
54247;SDS011;40161;39.768;2.722;2024-03-22T12:21:03;18.10;;;3.08;;
54247;SDS011;40161;39.768;2.722;2024-03-22T12:23:29;11.52;;;3.38;;
54247;SDS011;40161;39.768;2.722;2024-03-22T12:25:55;9.35;;;3.05;;
54247;SDS011;40161;39.768;2.722;2024-03-22T12:28:21;10.98;;;2.70;;
54247;SDS011;40161;39.768;2.722;2024-03-22T12:30:47;10.32;;;2.72;;
54247;SDS011;40161;39.768;2.722;2024-03-22T12:33:16;9.13;;;2.70;;
54247;SDS011;40161;39.768;2.722;2024-03-22T12:35:41;9.07;;;2.60;;
54247;SDS011;40161;39.768;2.722;2024-03-22T12:38:07;7.63;;;2.90;;
54247;SDS011;40161;39.768;2.722;2024-03-22T12:40:39;8.63;;;2.80;;
54247;SDS011;40161;39.768;2.722;2024-03-22T12:43:05;10.43;;;2.78;;
54247;SDS011;40161;39.768;2.722;2024-03-22T12:45:31;8.70;;;2.33;;
54247;SDS011;40161;39.768;2.722;2024-03-22T12:47:57;8.80;;;2.83;;
54247;SDS011;40161;39.768;2.722;2024-03-22T12:50:23;8.60;;;3.13;;
54247;SDS011;40161;39.768;2.722;2024-03-22T12:52:49;10.98;;;3.25;;
54247;SDS011;40161;39.768;2.722;2024-03-22T12:55:15;7.57;;;2.65;;
54247;SDS011;40161;39.768;2.722;2024-03-22T12:57:41;7.90;;;2.70;;
54247;SDS011;40161;39.768;2.722;2024-03-22T13:00:06;6.88;;;2.50;;
54247;SDS011;40161;39.768;2.722;2024-03-22T13:02:38;7.47;;;2.20;;
54247;SDS011;40161;39.768;2.722;2024-03-22T13:05:05;7.45;;;2.38;;
54247;SDS011;40161;39.768;2.722;2024-03-22T13:07:30;9.35;;;3.20;;
54247;SDS011;40161;39.768;2.722;2024-03-22T13:09:56;5.30;;;2.17;;
54247;SDS011;40161;39.768;2.722;2024-03-22T13:12:22;6.63;;;2.30;;
54247;SDS011;40161;39.768;2.722;2024-03-22T13:14:47;6.82;;;2.35;;
54247;SDS011;40161;39.768;2.722;2024-03-22T13:17:13;6.22;;;2.33;;
54247;SDS011;40161;39.768;2.722;2024-03-22T13:19:38;9.55;;;2.80;;
54247;SDS011;40161;39.768;2.722;2024-03-22T13:22:04;7.13;;;3.08;;
54247;SDS011;40161;39.768;2.722;2024-03-22T13:24:30;5.07;;;1.83;;
54247;SDS011;40161;39.768;2.722;2024-03-22T13:26:55;5.80;;;2.20;;
54247;SDS011;40161;39.768;2.722;2024-03-22T13:29:21;7.40;;;2.40;;
54247;SDS011;40161;39.768;2.722;2024-03-22T13:31:47;7.82;;;2.42;;
54247;SDS011;40161;39.768;2.722;2024-03-22T13:34:13;8.32;;;2.40;;
54247;SDS011;40161;39.768;2.722;2024-03-22T13:36:38;6.32;;;2.28;;
54247;SDS011;40161;39.768;2.722;2024-03-22T13:39:04;7.68;;;2.40;;
54247;SDS011;40161;39.768;2.722;2024-03-22T13:41:29;5.90;;;2.22;;
54247;SDS011;40161;39.768;2.722;2024-03-22T13:43:55;7.47;;;2.35;;
54247;SDS011;40161;39.768;2.722;2024-03-22T13:46:21;10.88;;;2.47;;
54247;SDS011;40161;39.768;2.722;2024-03-22T13:48:46;9.20;;;2.90;;
54247;SDS011;40161;39.768;2.722;2024-03-22T13:51:13;12.82;;;4.10;;
54247;SDS011;40161;39.768;2.722;2024-03-22T13:53:38;7.75;;;2.70;;
54247;SDS011;40161;39.768;2.722;2024-03-22T13:56:04;7.03;;;3.05;;
54247;SDS011;40161;39.768;2.722;2024-03-22T13:58:30;8.75;;;2.70;;
54247;SDS011;40161;39.768;2.722;2024-03-22T14:00:55;7.15;;;2.40;;
54247;SDS011;40161;39.768;2.722;2024-03-22T14:03:21;9.02;;;2.47;;
54247;SDS011;40161;39.768;2.722;2024-03-22T14:05:47;6.22;;;2.50;;
54247;SDS011;40161;39.768;2.722;2024-03-22T14:08:13;8.43;;;2.53;;
54247;SDS011;40161;39.768;2.722;2024-03-22T14:10:39;7.95;;;2.50;;
54247;SDS011;40161;39.768;2.722;2024-03-22T14:13:05;6.68;;;2.40;;
54247;SDS011;40161;39.768;2.722;2024-03-22T14:15:33;7.70;;;2.47;;
54247;SDS011;40161;39.768;2.722;2024-03-22T14:18:00;7.03;;;2.45;;
54247;SDS011;40161;39.768;2.722;2024-03-22T14:20:26;7.25;;;2.90;;
54247;SDS011;40161;39.768;2.722;2024-03-22T14:22:52;8.38;;;2.20;;
54247;SDS011;40161;39.768;2.722;2024-03-22T14:25:18;6.35;;;2.17;;
54247;SDS011;40161;39.768;2.722;2024-03-22T14:27:44;6.30;;;2.53;;
54247;SDS011;40161;39.768;2.722;2024-03-22T14:30:11;8.10;;;2.65;;
54247;SDS011;40161;39.768;2.722;2024-03-22T14:32:38;8.50;;;2.55;;
54247;SDS011;40161;39.768;2.722;2024-03-22T14:35:05;6.03;;;2.25;;
54247;SDS011;40161;39.768;2.722;2024-03-22T14:37:31;10.85;;;3.08;;